メインページ
METAR-TAF:

METAR-TAF

空港 :

クライストチャーチ国際空港

クライストチャーチ, ニュージーランド

緯度: 43-29S, 経度: 172-33E, 海抜: 38m

現時点の気象観測

当レポートは33分前の12:00(UTC)に作成
西/南西の風 2kt
気温 5°C
湿度 93%
気圧 1010 hPa
視程10km以上

METAR: NZCH 241200Z AUTO 24002KT 9999 SCT026/// 05/04 Q1010

時間: 00:33 (12:33 UTC)

予報

当レポートは1時間30分前の11:03(UTC)に作成
予報は24日の 12時(UTC)から 25日の 18時(UTC)まで有効
西の風 5kt
視程10km以上
高度7000ftの雲は散在している
確率 30%
24日の 13時(UTC)から 24日の 20時(UTC)まで
視程: 0500m
25日の 0000時(UTC)から
南西の風 10kt
視程10km以上
1,500メートル以下は雲なし、積乱雲なし
25日の 04時(UTC)から 25日の 06時(UTC)まで徐々に
西の風 5kt

TAF: NZCH 241103Z 2412/2518 28005KT 9999 SCT070 PROB30 2413/2420 0500 FG FM250000 22010KT CAVOK BECMG 2504/2506 28005KT

4,000以上の空港の気象観測と天気予報(METAR報とTAF報)

利用可能な観測所は地図上に黄色い丸と赤い丸で示す。

丸の上にカーソルを重ねると観測所名を参照できる。

次にクリックすると気象観測と天気予報を参照できる。

マップの切り替え:黒色「×」印の緑ボタンをクリックして拡大、「-」印の緑ボタンをクリックして縮小、緑色の三角印をクリックして隣りの地図に切り替え


METAR-TAF: